Time;durP1;ratioP1;P1;durP2;ratioP2;P2;SDS_P1;SDS_P2;PMS_P1;PMS_P2;Temp;Humidity;BMP_temperature;BMP_pressure;BME280_temperature;BME280_humidity;BME280_pressure;Samples;Min_cycle;Max_cycle;Signal;HPM_P1;HPM_P2
2022/07/15 00:02:19;;;;;;;5.63;3.40;;;17.00;99.90;;;;;;5068558;28;20403;-73
2022/07/15 00:04:47;;;;;;;7.13;3.50;;;16.90;99.90;;;;;;5071496;28;20462;-73
2022/07/15 00:07:14;;;;;;;5.13;3.50;;;16.90;99.90;;;;;;5081366;28;20045;-73
2022/07/15 00:12:26;;;;;;;6.32;3.78;;;16.80;99.90;;;;;;5084275;28;20442;-73
2022/07/15 00:14:54;;;;;;;4.82;3.25;;;16.80;99.90;;;;;;5093253;28;20048;-72
2022/07/15 00:17:22;;;;;;;7.07;3.60;;;16.70;99.90;;;;;;5093683;28;20048;-73
2022/07/15 00:19:49;;;;;;;10.82;4.10;;;16.70;99.90;;;;;;5082240;28;20045;-73
2022/07/15 00:22:17;;;;;;;7.15;4.05;;;16.70;99.90;;;;;;5053851;28;20041;-73
2022/07/15 00:24:44;;;;;;;6.78;3.67;;;16.60;99.90;;;;;;5053744;28;20487;-73
2022/07/15 00:27:11;;;;;;;6.18;3.40;;;16.60;99.90;;;;;;5084677;28;20059;-73
2022/07/15 00:29:39;;;;;;;6.55;3.15;;;16.60;99.90;;;;;;5075095;28;20051;-73
2022/07/15 00:32:07;;;;;;;5.35;2.92;;;16.50;99.90;;;;;;5090201;28;20044;-72
2022/07/15 00:34:35;;;;;;;5.88;3.53;;;16.40;99.90;;;;;;5034780;28;20455;-72
2022/07/15 00:37:02;;;;;;;8.52;3.22;;;16.40;99.90;;;;;;5068393;28;20048;-73
2022/07/15 00:39:29;;;;;;;6.40;3.72;;;16.40;99.90;;;;;;5034894;28;20053;-72
2022/07/15 00:41:57;;;;;;;5.75;3.20;;;16.30;99.90;;;;;;5052604;28;20033;-72
2022/07/15 00:44:24;;;;;;;7.85;3.10;;;16.20;99.90;;;;;;5049193;28;20049;-72
2022/07/15 00:46:53;;;;;;;5.95;2.78;;;16.20;99.90;;;;;;5054202;28;20044;-72
2022/07/15 00:49:22;;;;;;;8.32;3.30;;;16.30;99.90;;;;;;5082838;28;20081;-72
2022/07/15 00:51:52;;;;;;;6.20;3.10;;;16.30;99.90;;;;;;5068458;28;20032;-72
2022/07/15 00:54:26;;;;;;;4.90;3.30;;;16.20;99.90;;;;;;5084158;28;20066;-72
2022/07/15 00:56:56;;;;;;;4.75;3.10;;;16.10;99.90;;;;;;5070441;28;20044;-72
2022/07/15 00:59:25;;;;;;;6.38;3.03;;;16.10;99.90;;;;;;5069222;28;20135;-72
2022/07/15 01:01:53;;;;;;;6.18;3.25;;;16.10;99.90;;;;;;5097111;28;20043;-72
2022/07/15 01:04:24;;;;;;;7.75;3.20;;;16.10;99.90;;;;;;5096813;28;20047;-72
2022/07/15 01:06:52;;;;;;;7.25;3.25;;;16.00;99.90;;;;;;5046127;28;20095;-72
2022/07/15 01:09:20;;;;;;;6.30;3.50;;;15.90;99.90;;;;;;5056841;28;20443;-72
2022/07/15 01:11:48;;;;;;;5.18;3.30;;;15.90;99.90;;;;;;5038632;28;20045;-72
2022/07/15 01:14:15;;;;;;;6.05;3.20;;;15.80;99.90;;;;;;5037844;28;20136;-72
2022/07/15 01:16:43;;;;;;;5.45;2.90;;;15.70;99.90;;;;;;5038544;28;20045;-72
2022/07/15 01:19:10;;;;;;;7.03;3.50;;;15.70;99.90;;;;;;5040739;28;20065;-72
2022/07/15 01:21:45;;;;;;;8.10;3.55;;;15.70;99.90;;;;;;5038945;28;20057;-72
2022/07/15 01:24:14;;;;;;;5.07;3.00;;;15.70;99.90;;;;;;5038110;28;20045;-72
2022/07/15 01:26:57;;;;;;;5.82;3.40;;;15.70;99.90;;;;;;5038685;28;20052;-72
2022/07/15 01:29:24;;;;;;;4.78;2.90;;;15.60;99.90;;;;;;5071613;28;20041;-72
2022/07/15 01:31:53;;;;;;;8.23;3.47;;;15.60;99.90;;;;;;5037959;28;20053;-72
2022/07/15 01:34:20;;;;;;;6.63;3.30;;;15.60;99.90;;;;;;5055681;28;20522;-73
2022/07/15 01:36:50;;;;;;;5.22;3.00;;;15.60;99.90;;;;;;5037896;28;20041;-72
2022/07/15 01:39:17;;;;;;;4.25;3.40;;;15.50;99.90;;;;;;5055723;28;20049;-73
2022/07/15 01:41:45;;;;;;;6.72;3.20;;;15.40;99.90;;;;;;5055721;28;20036;-73
2022/07/15 01:44:16;;;;;;;6.82;2.92;;;15.40;99.90;;;;;;5037467;28;20049;-73
2022/07/15 01:46:45;;;;;;;5.45;3.28;;;15.40;99.90;;;;;;5038694;28;20095;-73
2022/07/15 01:49:26;;;;;;;6.28;3.35;;;15.30;99.90;;;;;;5037727;28;20041;-73
2022/07/15 01:52:13;;;;;;;5.43;3.13;;;15.30;99.90;;;;;;5055427;28;20040;-73
2022/07/15 01:54:43;;;;;;;6.78;2.83;;;15.20;99.90;;;;;;5037214;28;20385;-72
2022/07/15 01:57:11;;;;;;;7.05;3.40;;;15.20;99.90;;;;;;5037455;28;20167;-72
2022/07/15 01:59:51;;;;;;;5.40;3.30;;;15.20;99.90;;;;;;5037515;28;20429;-72
2022/07/15 02:02:38;;;;;;;5.38;3.10;;;15.10;99.90;;;;;;5041151;28;20045;-74
2022/07/15 02:05:07;;;;;;;6.13;3.28;;;15.10;99.90;;;;;;5037247;28;20053;-74
2022/07/15 02:07:36;;;;;;;6.10;3.40;;;15.00;99.90;;;;;;5070645;28;20045;-74
2022/07/15 02:10:06;;;;;;;4.93;3.35;;;14.90;99.90;;;;;;5037443;28;20630;-74
2022/07/15 02:12:33;;;;;;;6.38;3.15;;;14.90;99.90;;;;;;5054838;28;20037;-73
2022/07/15 02:15:01;;;;;;;5.53;3.15;;;14.80;99.90;;;;;;5037356;28;20045;-74
2022/07/15 02:17:39;;;;;;;6.50;3.42;;;14.80;99.90;;;;;;5037041;28;20496;-73
2022/07/15 02:20:07;;;;;;;7.60;3.75;;;14.80;99.90;;;;;;5040700;28;20045;-73
2022/07/15 02:22:37;;;;;;;6.60;3.20;;;14.80;99.90;;;;;;5036865;28;20047;-73
2022/07/15 02:25:05;;;;;;;6.47;3.35;;;14.80;99.90;;;;;;5070413;28;20136;-73
2022/07/15 02:27:33;;;;;;;5.82;3.42;;;14.80;99.90;;;;;;5036874;28;20047;-73
2022/07/15 02:30:00;;;;;;;6.03;3.38;;;14.80;99.90;;;;;;5051416;28;20059;-74
2022/07/15 02:32:33;;;;;;;6.05;3.40;;;14.60;99.90;;;;;;5056362;28;20399;-73
2022/07/15 02:35:01;;;;;;;5.22;3.13;;;14.50;99.90;;;;;;5057186;28;20060;-73
2022/07/15 02:37:29;;;;;;;5.50;2.90;;;14.60;99.90;;;;;;5056427;28;20075;-73
2022/07/15 02:39:58;;;;;;;5.50;2.65;;;14.50;99.90;;;;;;5062178;28;20139;-73
2022/07/15 02:42:26;;;;;;;5.45;3.47;;;14.60;99.90;;;;;;5082050;28;20040;-73
2022/07/15 02:44:53;;;;;;;5.63;3.25;;;14.60;99.90;;;;;;5038134;28;20409;-73
2022/07/15 02:47:22;;;;;;;5.75;2.80;;;14.60;99.90;;;;;;5036626;28;20053;-73
2022/07/15 02:49:49;;;;;;;7.40;3.58;;;14.50;99.90;;;;;;5036992;28;20055;-73
2022/07/15 02:52:16;;;;;;;4.43;3.13;;;14.50;99.90;;;;;;5054405;28;20045;-73
2022/07/15 02:54:49;;;;;;;7.20;3.50;;;14.50;99.90;;;;;;5036661;28;20045;-73
2022/07/15 02:57:20;;;;;;;6.90;3.40;;;14.40;99.90;;;;;;5036636;28;20106;-73
2022/07/15 02:59:47;;;;;;;7.28;3.30;;;14.40;99.90;;;;;;5016734;28;20049;-73
2022/07/15 03:02:15;;;;;;;5.70;3.08;;;14.30;99.90;;;;;;5016622;28;20504;-74
2022/07/15 03:04:42;;;;;;;5.60;3.33;;;14.30;99.90;;;;;;5016319;28;20065;-73
2022/07/15 03:07:10;;;;;;;7.13;4.05;;;14.20;99.90;;;;;;5016411;28;20041;-73
2022/07/15 03:09:37;;;;;;;4.72;3.40;;;14.20;99.90;;;;;;5034379;28;20041;-74
2022/07/15 03:12:05;;;;;;;5.15;3.15;;;14.20;99.90;;;;;;5027045;28;20041;-73
2022/07/15 03:14:34;;;;;;;4.88;3.45;;;14.20;99.90;;;;;;5036329;28;20052;-74
2022/07/15 03:17:01;;;;;;;6.95;3.60;;;14.20;99.90;;;;;;5036143;28;20047;-72
2022/07/15 03:19:29;;;;;;;6.93;3.30;;;14.20;99.90;;;;;;5034583;28;20041;-72
2022/07/15 03:21:56;;;;;;;8.73;3.35;;;14.20;99.90;;;;;;5016512;28;20439;-73
2022/07/15 03:24:25;;;;;;;5.63;3.05;;;14.20;99.90;;;;;;5015914;28;20411;-73
2022/07/15 03:26:57;;;;;;;5.25;3.60;;;14.30;99.90;;;;;;5027964;28;20041;-73
2022/07/15 03:29:24;;;;;;;6.22;3.47;;;14.20;99.90;;;;;;5035979;28;20416;-73
2022/07/15 03:31:54;;;;;;;5.43;3.55;;;14.20;99.90;;;;;;5035695;28;20060;-73
2022/07/15 03:34:25;;;;;;;7.40;4.18;;;14.20;99.90;;;;;;5035923;28;20136;-73
2022/07/15 03:36:53;;;;;;;7.30;4.63;;;14.20;99.90;;;;;;5035818;28;20052;-73
2022/07/15 03:39:22;;;;;;;8.98;6.97;;;14.20;99.90;;;;;;5069659;28;20045;-73
2022/07/15 03:41:50;;;;;;;9.85;8.25;;;14.20;99.90;;;;;;5035842;28;20049;-73
2022/07/15 03:44:18;;;;;;;7.88;6.28;;;14.30;99.90;;;;;;5035572;28;20119;-73
2022/07/15 03:46:47;;;;;;;7.55;4.85;;;14.30;99.90;;;;;;5094320;22;20054;-73
2022/07/15 03:49:17;;;;;;;6.28;5.10;;;14.30;99.90;;;;;;5076451;28;20160;-73
2022/07/15 03:51:45;;;;;;;7.10;4.53;;;14.30;99.90;;;;;;5075639;28;20044;-74
2022/07/15 03:54:13;;;;;;;7.55;4.97;;;14.30;99.90;;;;;;5076220;28;20127;-73
2022/07/15 03:56:47;;;;;;;6.63;5.20;;;14.40;99.90;;;;;;5090587;28;20403;-75
2022/07/15 03:59:14;;;;;;;9.30;6.35;;;14.40;99.90;;;;;;5093443;28;20460;-72
2022/07/15 04:01:42;;;;;;;7.18;5.00;;;14.60;99.90;;;;;;5094207;28;20060;-73
2022/07/15 04:04:09;;;;;;;11.30;6.53;;;15.30;99.90;;;;;;5093890;28;20383;-73
2022/07/15 04:06:38;;;;;;;7.43;4.50;;;16.50;99.90;;;;;;5092917;28;20067;-73
2022/07/15 04:09:07;;;;;;;7.00;3.83;;;17.60;99.90;;;;;;5102360;28;20131;-73
2022/07/15 04:11:34;;;;;;;7.15;3.30;;;18.50;99.90;;;;;;5103941;28;20044;-74
2022/07/15 04:14:02;;;;;;;8.23;3.10;;;19.40;99.90;;;;;;5096099;28;20048;-73
2022/07/15 04:16:29;;;;;;;7.40;2.90;;;20.20;99.90;;;;;;5095859;28;20052;-73
2022/07/15 04:19:01;;;;;;;5.35;3.53;;;20.90;99.90;;;;;;5100833;28;20105;-73
2022/07/15 04:21:29;;;;;;;6.32;3.10;;;21.60;99.90;;;;;;5098751;28;20052;-73
2022/07/15 04:23:57;;;;;;;5.80;3.50;;;21.80;99.90;;;;;;5103468;28;20048;-73
2022/07/15 04:26:25;;;;;;;5.80;3.38;;;22.40;99.90;;;;;;5110476;28;20052;-73
2022/07/15 04:28:52;;;;;;;6.25;3.00;;;22.90;99.90;;;;;;5088927;28;20063;-73
2022/07/15 04:31:19;;;;;;;5.63;3.15;;;23.60;99.90;;;;;;5089062;28;20144;-74
2022/07/15 04:33:54;;;;;;;6.50;2.85;;;24.40;99.90;;;;;;5078413;28;20059;-73
2022/07/15 04:36:22;;;;;;;7.68;2.78;;;24.40;99.90;;;;;;5092687;28;20063;-74
2022/07/15 04:38:50;;;;;;;5.07;2.80;;;24.60;99.90;;;;;;5082947;28;20455;-71
2022/07/15 04:41:19;;;;;;;4.57;3.00;;;24.80;99.90;;;;;;5077314;28;20044;-73
2022/07/15 04:43:47;;;;;;;7.10;3.33;;;25.10;99.90;;;;;;5086277;28;20079;-73
2022/07/15 04:46:16;;;;;;;8.80;3.85;;;25.20;99.90;;;;;;5096148;28;20565;-74
2022/07/15 04:51:33;;;;;;;5.60;3.58;;;25.60;99.90;;;;;;5114577;28;20040;-73
2022/07/15 04:54:01;;;;;;;8.95;3.55;;;25.70;99.90;;;;;;5115032;28;20044;-73
2022/07/15 04:56:30;;;;;;;7.50;3.50;;;25.80;99.90;;;;;;5113379;28;20110;-73
2022/07/15 04:59:04;;;;;;;8.75;3.80;;;26.10;99.90;;;;;;5090419;28;20037;-72
2022/07/15 05:01:33;;;;;;;8.52;4.47;;;26.40;99.90;;;;;;5089870;28;20050;-73
2022/07/15 05:04:01;;;;;;;7.68;3.67;;;26.60;99.90;;;;;;5079852;28;20048;-71
2022/07/15 05:06:29;;;;;;;7.05;4.22;;;26.80;99.90;;;;;;5082000;28;20400;-73
2022/07/15 05:08:57;;;;;;;8.13;4.05;;;27.10;99.90;;;;;;5084137;28;20117;-73
2022/07/15 05:11:24;;;;;;;24.80;14.35;;;27.80;99.60;;;;;;5090533;28;20044;-74
2022/07/15 05:13:53;;;;;;;8.27;3.95;;;28.50;97.30;;;;;;5094601;28;20036;-74
2022/07/15 05:16:21;;;;;;;5.50;3.72;;;28.80;96.00;;;;;;5096356;28;20051;-74
2022/07/15 05:18:48;;;;;;;11.40;6.07;;;29.40;94.20;;;;;;5095014;28;20036;-74
2022/07/15 05:21:17;;;;;;;9.02;4.20;;;29.60;93.30;;;;;;5083721;28;20041;-74
2022/07/15 05:23:46;;;;;;;9.73;3.92;;;29.80;92.00;;;;;;5087662;28;20041;-74
2022/07/15 05:26:13;;;;;;;9.13;2.95;;;29.50;91.20;;;;;;5086223;28;20041;-75
2022/07/15 05:28:44;;;;;;;5.35;2.78;;;29.30;91.10;;;;;;5086216;28;20032;-73
2022/07/15 05:31:13;;;;;;;8.10;2.97;;;29.00;91.30;;;;;;5080650;28;20043;-74
2022/07/15 05:33:40;;;;;;;7.57;2.88;;;29.20;91.00;;;;;;5089664;28;20044;-74
2022/07/15 05:36:13;;;;;;;15.38;4.00;;;29.70;90.70;;;;;;5080775;28;20040;-74
2022/07/15 05:38:42;;;;;;;8.02;4.32;;;29.90;90.60;;;;;;5089588;28;20050;-73
2022/07/15 05:41:10;;;;;;;10.43;4.78;;;30.00;90.80;;;;;;5094491;28;20058;-72
2022/07/15 05:43:38;;;;;;;7.40;3.50;;;30.00;89.90;;;;;;5093170;28;20048;-74
2022/07/15 05:46:07;;;;;;;7.45;2.92;;;30.10;88.90;;;;;;5093831;28;20052;-74
2022/07/15 05:48:47;;;;;;;7.50;5.18;;;30.10;87.70;;;;;;5094701;28;20055;-74
2022/07/15 05:51:15;;;;;;;7.05;4.95;;;29.00;88.70;;;;;;5094348;28;20139;-74
2022/07/15 05:53:43;;;;;;;7.93;3.10;;;28.50;89.30;;;;;;5093765;28;20063;-74
2022/07/15 05:56:11;;;;;;;9.95;4.15;;;28.10;88.40;;;;;;5094147;28;20045;-76
2022/07/15 05:58:39;;;;;;;4.63;2.70;;;28.30;89.40;;;;;;5096140;28;20051;-73
2022/07/15 06:01:07;;;;;;;9.43;4.90;;;28.00;90.00;;;;;;5091497;28;20097;-74
2022/07/15 06:03:40;;;;;;;9.98;5.72;;;28.00;90.10;;;;;;5095024;28;20359;-73
2022/07/15 06:06:09;;;;;;;13.85;5.97;;;28.00;90.20;;;;;;5097480;28;20563;-74
2022/07/15 06:08:38;;;;;;;10.63;6.07;;;27.80;90.30;;;;;;5088349;28;20094;-74
2022/07/15 06:11:08;;;;;;;6.40;3.33;;;27.80;90.20;;;;;;5075933;28;20049;-73
2022/07/15 06:13:37;;;;;;;9.75;4.13;;;27.70;91.70;;;;;;5087532;28;20502;-73
2022/07/15 06:16:06;;;;;;;11.73;5.35;;;27.40;92.10;;;;;;5093486;28;20044;-73
2022/07/15 06:18:34;;;;;;;11.65;5.75;;;27.00;92.10;;;;;;5085339;28;20036;-73
2022/07/15 06:21:02;;;;;;;10.15;4.80;;;26.70;92.90;;;;;;5090326;28;20050;-72
2022/07/15 06:23:31;;;;;;;14.70;5.35;;;26.90;93.30;;;;;;5103119;28;20072;-73
2022/07/15 06:25:59;;;;;;;14.80;6.05;;;27.00;93.40;;;;;;5098672;28;20098;-72
2022/07/15 06:28:26;;;;;;;23.13;7.25;;;27.30;93.00;;;;;;5091298;28;20048;-73
2022/07/15 06:30:54;;;;;;;13.13;6.93;;;27.50;92.30;;;;;;5072983;28;20052;-73
2022/07/15 06:33:23;;;;;;;20.35;11.43;;;27.70;92.20;;;;;;5075178;28;20040;-73
2022/07/15 06:35:50;;;;;;;18.05;7.28;;;27.90;92.30;;;;;;5074402;28;20048;-73
2022/07/15 06:38:17;;;;;;;16.00;6.72;;;28.00;92.10;;;;;;5075396;28;20415;-74
2022/07/15 06:40:46;;;;;;;13.05;7.00;;;28.10;92.00;;;;;;5073967;28;20105;-72
2022/07/15 06:43:14;;;;;;;11.80;6.68;;;28.20;91.70;;;;;;5074946;28;20086;-73
2022/07/15 06:46:08;;;;;;;10.82;6.40;;;28.20;91.30;;;;;;5093440;28;20041;-73
2022/07/15 06:48:38;;;;;;;15.13;7.50;;;28.40;91.30;;;;;;5096517;28;20120;-74
2022/07/15 06:51:05;;;;;;;15.45;6.13;;;28.60;91.70;;;;;;5095960;28;20064;-74
2022/07/15 06:53:33;;;;;;;16.05;8.13;;;28.50;91.70;;;;;;5095733;28;20060;-74
2022/07/15 06:56:01;;;;;;;22.85;9.27;;;28.60;92.00;;;;;;5082757;28;20473;-74
2022/07/15 06:58:29;;;;;;;15.93;7.40;;;28.50;91.90;;;;;;5081299;28;20051;-75
2022/07/15 07:00:58;;;;;;;25.67;8.50;;;28.40;91.80;;;;;;5077974;28;20044;-73
2022/07/15 07:03:26;;;;;;;24.75;7.35;;;28.50;91.70;;;;;;5076774;28;20102;-73
2022/07/15 07:05:53;;;;;;;13.10;7.00;;;28.60;91.60;;;;;;5075157;28;20041;-74
2022/07/15 07:08:21;;;;;;;13.38;6.90;;;28.60;91.40;;;;;;5075146;28;20059;-74
2022/07/15 07:10:48;;;;;;;13.00;7.60;;;28.70;91.30;;;;;;5074451;28;20048;-75
2022/07/15 07:13:16;;;;;;;18.83;11.07;;;28.80;90.90;;;;;;5085132;28;20486;-74
2022/07/15 07:15:44;;;;;;;14.43;7.90;;;29.00;91.00;;;;;;5094875;28;20400;-74
2022/07/15 07:18:11;;;;;;;11.18;6.40;;;29.20;90.90;;;;;;5094629;28;20491;-74
2022/07/15 07:20:43;;;;;;;11.30;5.75;;;29.20;90.10;;;;;;5094695;28;20445;-74
2022/07/15 07:23:10;;;;;;;11.50;5.72;;;29.30;90.10;;;;;;5097843;28;20036;-74
2022/07/15 07:25:37;;;;;;;11.27;5.38;;;29.20;89.40;;;;;;5093706;28;20395;-74
2022/07/15 07:28:05;;;;;;;15.20;6.93;;;29.40;89.30;;;;;;5093095;28;20487;-73
2022/07/15 07:30:34;;;;;;;12.15;5.25;;;29.60;87.70;;;;;;5094460;28;20490;-74
2022/07/15 07:33:01;;;;;;;21.70;6.57;;;29.70;86.40;;;;;;5094548;28;20556;-74
2022/07/15 07:35:28;;;;;;;13.23;6.10;;;29.70;85.50;;;;;;5095868;28;20044;-74
2022/07/15 07:37:55;;;;;;;15.57;6.18;;;29.80;83.00;;;;;;5094751;28;20040;-75
2022/07/15 07:40:23;;;;;;;12.77;6.15;;;29.70;83.40;;;;;;5095043;28;20101;-75
2022/07/15 07:42:51;;;;;;;12.93;5.93;;;29.80;82.70;;;;;;5094353;28;20479;-75
2022/07/15 07:45:18;;;;;;;17.50;5.90;;;29.80;80.90;;;;;;5100698;28;20052;-74
2022/07/15 07:47:47;;;;;;;14.07;6.50;;;29.90;80.90;;;;;;5114978;28;20050;-73
2022/07/15 07:50:14;;;;;;;13.93;7.93;;;30.10;81.20;;;;;;5115160;28;20051;-73
2022/07/15 07:52:41;;;;;;;19.52;9.23;;;30.10;78.30;;;;;;5114899;28;20109;-73
2022/07/15 07:55:10;;;;;;;14.98;10.25;;;30.30;78.20;;;;;;5114373;28;20071;-73
2022/07/15 07:57:47;;;;;;;12.98;5.75;;;30.30;80.00;;;;;;5115022;28;20414;-74
2022/07/15 08:00:15;;;;;;;7.30;4.15;;;30.20;80.90;;;;;;5114317;28;20112;-73
2022/07/15 08:02:42;;;;;;;14.98;7.55;;;30.30;80.50;;;;;;5113701;28;20069;-73
2022/07/15 08:05:12;;;;;;;13.35;6.57;;;30.40;79.70;;;;;;5114588;28;20040;-73
2022/07/15 08:07:39;;;;;;;18.58;6.20;;;30.50;76.30;;;;;;5096445;28;20067;-74
2022/07/15 08:10:08;;;;;;;13.40;5.47;;;30.50;76.30;;;;;;5118448;28;20047;-74
2022/07/15 08:12:36;;;;;;;21.40;8.18;;;30.20;74.20;;;;;;5123903;28;20048;-74
2022/07/15 08:15:04;;;;;;;13.73;6.35;;;30.20;75.80;;;;;;5116570;28;20035;-74
2022/07/15 08:17:32;;;;;;;11.75;5.20;;;30.50;74.40;;;;;;5114385;28;20456;-73
2022/07/15 08:19:59;;;;;;;10.90;5.68;;;30.60;70.00;;;;;;5121471;28;20036;-74
2022/07/15 08:22:28;;;;;;;13.88;6.03;;;30.50;71.00;;;;;;5108310;28;20048;-73
2022/07/15 08:24:55;;;;;;;14.00;6.68;;;30.50;72.10;;;;;;5076687;28;20040;-74
2022/07/15 08:27:22;;;;;;;14.43;6.78;;;30.40;70.00;;;;;;5096771;28;20044;-73
2022/07/15 08:29:49;;;;;;;14.68;5.07;;;30.40;70.60;;;;;;5098896;28;20040;-73
2022/07/15 08:32:17;;;;;;;11.43;4.90;;;30.50;74.50;;;;;;5099678;28;20036;-74
2022/07/15 08:34:44;;;;;;;11.32;4.63;;;30.50;74.70;;;;;;5093578;28;20082;-74
2022/07/15 08:37:11;;;;;;;9.43;4.57;;;30.50;75.20;;;;;;5094119;28;20503;-73
2022/07/15 08:39:40;;;;;;;11.80;4.38;;;30.40;74.60;;;;;;5093821;28;20056;-74
2022/07/15 08:42:08;;;;;;;10.20;4.97;;;30.40;75.00;;;;;;5093913;28;20510;-74
2022/07/15 08:44:37;;;;;;;11.05;5.38;;;30.50;75.10;;;;;;5094927;28;20110;-73
2022/07/15 08:47:06;;;;;;;14.45;6.78;;;30.80;75.20;;;;;;5075569;28;20070;-74
2022/07/15 08:49:39;;;;;;;14.38;5.15;;;31.00;74.80;;;;;;5093171;28;20050;-74
2022/07/15 08:52:07;;;;;;;10.85;6.45;;;31.20;74.20;;;;;;5093280;28;20047;-73
2022/07/15 08:54:35;;;;;;;9.48;5.15;;;31.30;73.90;;;;;;5092919;28;20068;-75
2022/07/15 08:57:04;;;;;;;9.45;4.13;;;31.20;74.10;;;;;;5093291;28;20048;-75
2022/07/15 08:59:32;;;;;;;17.08;9.30;;;31.10;74.50;;;;;;5093114;28;20079;-75
2022/07/15 09:02:00;;;;;;;12.73;5.30;;;31.00;74.80;;;;;;5093141;28;20068;-74
2022/07/15 09:04:27;;;;;;;8.18;4.63;;;31.00;75.30;;;;;;5093578;28;20040;-74
2022/07/15 09:06:55;;;;;;;10.27;4.43;;;31.20;75.90;;;;;;5093470;28;20052;-74
2022/07/15 09:09:39;;;;;;;9.00;4.45;;;31.50;75.80;;;;;;5094201;28;20048;-74
2022/07/15 09:12:10;;;;;;;6.10;3.90;;;31.40;76.10;;;;;;5094071;28;20116;-73
2022/07/15 09:14:39;;;;;;;7.65;3.60;;;31.40;76.70;;;;;;5113180;28;20445;-74
2022/07/15 09:17:22;;;;;;;7.22;3.67;;;31.40;76.90;;;;;;5095547;28;20048;-73
2022/07/15 09:20:05;;;;;;;9.90;5.93;;;31.40;77.70;;;;;;5110929;28;20104;-74
2022/07/15 09:22:47;;;;;;;13.18;5.13;;;31.70;77.70;;;;;;5099901;28;20124;-74
2022/07/15 09:25:14;;;;;;;5.55;3.75;;;31.90;77.00;;;;;;5099193;28;20097;-74
2022/07/15 09:27:45;;;;;;;6.43;2.70;;;32.10;73.80;;;;;;5118280;28;20044;-74
2022/07/15 09:36:05;;;;;;;3.53;2.13;;;31.70;69.70;;;;;;5116336;28;20386;-75
2022/07/15 09:38:41;;;;;;;5.93;2.70;;;31.50;69.70;;;;;;5118530;28;20048;-74
2022/07/15 09:41:10;;;;;;;7.75;3.67;;;31.50;69.90;;;;;;5098618;28;20391;-72
2022/07/15 09:43:47;;;;;;;5.88;3.20;;;31.70;70.20;;;;;;5083564;28;20043;-73
2022/07/15 09:46:15;;;;;;;8.30;3.00;;;31.70;69.70;;;;;;5108060;28;20059;-73
2022/07/15 09:48:43;;;;;;;7.53;2.55;;;31.80;69.40;;;;;;5117953;28;20490;-74
2022/07/15 09:51:11;;;;;;;4.55;2.40;;;31.80;68.30;;;;;;5117344;28;20044;-73
2022/07/15 09:53:40;;;;;;;6.63;2.53;;;31.90;67.40;;;;;;5116522;28;20036;-75
2022/07/15 09:56:09;;;;;;;3.47;2.45;;;32.00;67.80;;;;;;5104823;28;20050;-74
2022/07/15 09:58:40;;;;;;;4.35;2.30;;;32.10;67.00;;;;;;5120316;28;20120;-74
2022/07/15 10:01:12;;;;;;;3.75;2.28;;;32.00;66.90;;;;;;5116757;28;20047;-74
2022/07/15 10:03:40;;;;;;;4.20;2.50;;;31.80;66.50;;;;;;5119598;28;20036;-74
2022/07/15 10:06:07;;;;;;;7.03;2.72;;;31.80;66.30;;;;;;5116845;28;20070;-74
2022/07/15 10:08:36;;;;;;;6.05;2.55;;;31.90;65.80;;;;;;5117864;28;20085;-74
2022/07/15 10:11:09;;;;;;;5.53;2.63;;;31.90;65.60;;;;;;5099226;28;20647;-74
2022/07/15 10:13:55;;;;;;;6.53;2.80;;;32.10;66.30;;;;;;5113804;28;20032;-74
2022/07/15 10:16:48;;;;;;;4.20;2.40;;;32.10;66.80;;;;;;5126073;28;20054;-73
2022/07/15 10:19:25;;;;;;;8.50;3.28;;;32.20;65.80;;;;;;5111388;28;20043;-74
2022/07/15 10:22:02;;;;;;;3.97;2.63;;;32.30;65.60;;;;;;5106580;28;20090;-74
2022/07/15 10:24:53;;;;;;;6.70;2.60;;;32.40;65.90;;;;;;5116235;28;20035;-74
2022/07/15 10:27:46;;;;;;;5.18;2.70;;;32.30;65.40;;;;;;5115505;28;20115;-74
2022/07/15 10:30:19;;;;;;;7.68;2.65;;;32.30;66.00;;;;;;5116559;28;20422;-74
2022/07/15 10:33:13;;;;;;;8.45;2.90;;;32.00;67.00;;;;;;5115940;28;20052;-74
2022/07/15 10:35:47;;;;;;;5.35;3.35;;;32.00;67.80;;;;;;5089624;28;20508;-74
2022/07/15 10:38:29;;;;;;;6.28;3.13;;;32.00;66.90;;;;;;5116199;28;20437;-76
2022/07/15 10:40:58;;;;;;;3.30;2.13;;;32.20;67.40;;;;;;5116166;28;20035;-75
2022/07/15 10:43:42;;;;;;;3.83;2.42;;;32.40;66.70;;;;;;5115041;28;20079;-74
2022/07/15 10:46:22;;;;;;;4.18;2.33;;;32.50;66.50;;;;;;5117428;28;20052;-73
2022/07/15 10:48:52;;;;;;;5.72;2.88;;;32.40;66.60;;;;;;5116755;28;20456;-75
2022/07/15 10:51:44;;;;;;;4.32;3.40;;;32.20;67.20;;;;;;5116835;28;20509;-75
2022/07/15 10:54:27;;;;;;;5.82;2.35;;;32.20;67.90;;;;;;5109679;28;20032;-74
2022/07/15 10:56:55;;;;;;;6.70;2.50;;;32.20;68.90;;;;;;5119618;28;20102;-75
2022/07/15 10:59:24;;;;;;;5.45;2.38;;;32.20;68.00;;;;;;5115646;28;20047;-75
2022/07/15 11:02:11;;;;;;;6.18;2.60;;;32.20;67.50;;;;;;5129385;28;20090;-74
2022/07/15 11:04:42;;;;;;;3.80;1.92;;;32.00;67.90;;;;;;5124962;28;20072;-75
2022/07/15 11:07:35;;;;;;;8.55;2.55;;;32.00;66.40;;;;;;5101199;28;20192;-74
2022/07/15 11:10:20;;;;;;;4.88;1.83;;;31.80;66.00;;;;;;5099783;28;20432;-75
2022/07/15 11:12:59;;;;;;;3.13;1.85;;;31.50;64.90;;;;;;5118774;28;20044;-74
2022/07/15 11:15:27;;;;;;;12.82;7.13;;;31.40;66.10;;;;;;5098711;28;20134;-74
2022/07/15 11:17:56;;;;;;;5.53;2.50;;;31.50;65.90;;;;;;5116399;28;20567;-75
2022/07/15 11:20:32;;;;;;;7.05;2.35;;;31.50;66.10;;;;;;5097355;28;20046;-76
2022/07/15 11:23:00;;;;;;;6.70;2.75;;;31.60;65.70;;;;;;5116093;28;20112;-76
2022/07/15 11:25:29;;;;;;;4.65;2.20;;;31.80;65.10;;;;;;5116137;28;20055;-76
2022/07/15 11:28:03;;;;;;;8.75;2.97;;;31.80;65.00;;;;;;5115905;28;20035;-74
2022/07/15 11:30:33;;;;;;;6.32;2.70;;;31.80;65.10;;;;;;5115246;28;20039;-76
2022/07/15 11:33:02;;;;;;;6.45;3.05;;;31.90;64.10;;;;;;5117965;28;20039;-75
2022/07/15 11:35:31;;;;;;;7.50;3.85;;;32.10;64.10;;;;;;5115882;28;20074;-75
2022/07/15 11:38:04;;;;;;;5.70;2.65;;;32.20;64.90;;;;;;5114720;28;20065;-75
2022/07/15 11:46:05;;;;;;;7.03;2.60;;;32.20;65.20;;;;;;5114806;28;20489;-75
2022/07/15 11:48:40;;;;;;;7.18;2.85;;;32.20;65.90;;;;;;5097639;28;20048;-75
2022/07/15 11:51:10;;;;;;;5.28;2.58;;;32.20;67.30;;;;;;5115805;28;20513;-75
2022/07/15 11:53:40;;;;;;;5.35;2.50;;;32.00;68.40;;;;;;5098412;28;20138;-73
2022/07/15 11:56:08;;;;;;;6.22;3.28;;;31.80;68.20;;;;;;5114785;28;20035;-75
2022/07/15 11:58:37;;;;;;;6.00;2.67;;;31.90;69.50;;;;;;5115037;28;20047;-74
2022/07/15 12:01:07;;;;;;;4.68;2.40;;;31.70;70.40;;;;;;5114444;28;20058;-75
2022/07/15 12:03:36;;;;;;;5.38;2.45;;;31.40;71.90;;;;;;5113827;28;20053;-74
2022/07/15 12:06:06;;;;;;;6.63;3.10;;;31.50;72.50;;;;;;5113860;28;20182;-74
2022/07/15 12:08:38;;;;;;;4.72;2.75;;;31.70;73.30;;;;;;5117553;28;20090;-74
2022/07/15 12:11:18;;;;;;;6.25;2.63;;;31.80;72.60;;;;;;5134447;28;20027;-75
2022/07/15 12:13:48;;;;;;;5.03;2.65;;;31.80;71.30;;;;;;5113431;28;20051;-75
2022/07/15 12:16:20;;;;;;;5.07;2.50;;;31.70;70.70;;;;;;5102535;28;20426;-75
2022/07/15 12:18:49;;;;;;;4.22;2.40;;;31.60;70.30;;;;;;5092707;28;20048;-74
2022/07/15 12:21:16;;;;;;;5.20;2.47;;;31.60;70.20;;;;;;5110509;28;20066;-74
2022/07/15 12:24:05;;;;;;;4.72;2.80;;;31.60;70.60;;;;;;5115672;28;20063;-74
2022/07/15 12:26:33;;;;;;;6.97;2.58;;;31.50;70.90;;;;;;5131651;28;20046;-74
2022/07/15 12:29:04;;;;;;;4.07;2.15;;;31.50;69.40;;;;;;5135233;28;20043;-74
2022/07/15 12:31:33;;;;;;;3.88;2.10;;;31.40;66.20;;;;;;5119499;28;20047;-75
2022/07/15 12:34:01;;;;;;;3.65;2.22;;;31.30;66.60;;;;;;5127020;28;20040;-75
2022/07/15 12:36:30;;;;;;;4.88;2.28;;;31.30;64.70;;;;;;5106555;28;20067;-75
2022/07/15 12:39:12;;;;;;;5.57;2.90;;;31.40;66.00;;;;;;5121074;28;20055;-75
2022/07/15 12:41:42;;;;;;;3.75;1.95;;;31.60;63.80;;;;;;5115296;28;20043;-75
2022/07/15 12:44:10;;;;;;;6.32;2.03;;;31.50;61.40;;;;;;5115555;28;20036;-75
2022/07/15 12:46:53;;;;;;;3.95;2.35;;;31.40;61.90;;;;;;5115034;28;20078;-75
2022/07/15 12:49:43;;;;;;;3.85;1.95;;;31.40;61.80;;;;;;5114175;28;20100;-76
2022/07/15 12:52:23;;;;;;;5.80;2.30;;;31.50;62.40;;;;;;5095154;28;20071;-74
2022/07/15 12:54:55;;;;;;;5.43;3.42;;;31.50;63.40;;;;;;5120095;28;20081;-74
2022/07/15 12:57:26;;;;;;;6.43;2.40;;;31.50;63.00;;;;;;5110633;28;20074;-75
2022/07/15 12:59:55;;;;;;;9.68;3.30;;;31.60;62.00;;;;;;5109740;28;20518;-75
2022/07/15 13:02:22;;;;;;;5.75;2.30;;;31.80;62.70;;;;;;5118213;28;20044;-74
2022/07/15 13:04:49;;;;;;;4.18;1.88;;;31.60;61.20;;;;;;5138316;28;20029;-75
2022/07/15 13:07:18;;;;;;;5.35;2.25;;;31.40;61.70;;;;;;5122745;28;20044;-77
2022/07/15 13:09:46;;;;;;;4.53;2.20;;;31.50;61.80;;;;;;5100093;28;20116;-76
2022/07/15 13:12:15;;;;;;;4.15;1.90;;;31.50;60.70;;;;;;5119415;28;20043;-75
2022/07/15 13:14:43;;;;;;;4.28;2.00;;;31.50;60.30;;;;;;5118794;28;20036;-74
2022/07/15 13:17:11;;;;;;;3.83;2.30;;;31.50;61.00;;;;;;5118463;28;20551;-75